createdAt,value
2023-04-11T00:00:02.775Z,97.1
2023-04-11T00:15:03.404Z,97.1
2023-04-11T00:30:02.657Z,97.2
2023-04-11T00:45:03.090Z,97.2
2023-04-11T01:00:02.534Z,97.2
2023-04-11T01:15:02.990Z,97.3
2023-04-11T01:30:02.450Z,97.3
2023-04-11T01:45:02.860Z,96.6
2023-04-11T02:00:02.410Z,96.9
2023-04-11T02:15:02.740Z,97.3
2023-04-11T02:30:03.397Z,97.4
2023-04-11T02:45:02.661Z,97.8
2023-04-11T03:00:03.062Z,98.1
2023-04-11T03:15:02.531Z,98.3
2023-04-11T03:30:02.946Z,98.7
2023-04-11T03:45:02.437Z,98.7
2023-04-11T04:00:02.829Z,98.7
2023-04-11T04:15:03.448Z,98.6
2023-04-11T04:30:04.187Z,98.3
2023-04-11T04:45:03.155Z,97.8
2023-04-11T05:00:02.602Z,97.4
2023-04-11T05:15:03.038Z,97.3
2023-04-11T05:30:02.490Z,97.3
2023-04-11T05:45:02.917Z,97.0
2023-04-11T06:00:02.469Z,97.1
2023-04-11T06:15:02.819Z,96.9
2023-04-11T06:30:02.412Z,96.5
2023-04-11T06:45:02.680Z,96.2
2023-04-11T07:00:03.149Z,94.9
2023-04-11T07:15:02.579Z,92.8
2023-04-11T07:30:03.002Z,88.8
2023-04-11T07:45:02.491Z,82.7
2023-04-11T08:00:02.877Z,77.7
2023-04-11T08:15:02.493Z,74.8
2023-04-11T08:30:02.992Z,66.9
2023-04-11T08:45:02.196Z,60.9
2023-04-11T09:00:02.622Z,60.3
2023-04-11T09:15:03.069Z,60.4
2023-04-11T09:30:02.532Z,57.8
2023-04-11T09:45:02.972Z,52.4
2023-04-11T10:00:02.518Z,55.4
2023-04-11T10:15:02.821Z,51.3
2023-04-11T10:30:02.264Z,49.1
2023-04-11T10:45:02.713Z,48.6
2023-04-11T11:15:02.563Z,45.8
2023-04-11T11:30:03.008Z,45.3
2023-04-11T11:45:02.534Z,41.4
2023-04-11T12:00:02.915Z,43.0
2023-04-11T12:15:02.555Z,41.1
2023-04-11T12:30:02.771Z,41.0
2023-04-11T12:45:03.257Z,35.9
2023-04-11T13:00:02.619Z,38.3
2023-04-11T13:15:02.063Z,34.8
2023-04-11T13:30:02.542Z,40.3
2023-04-11T13:45:02.957Z,42.1
2023-04-11T14:00:02.617Z,37.1
2023-04-11T14:15:02.824Z,39.4
2023-04-11T14:30:02.306Z,37.4
2023-04-11T14:45:02.707Z,39.5
2023-04-11T15:00:03.155Z,37.7
2023-04-11T15:15:02.559Z,37.9
2023-04-11T15:30:03.019Z,38.9
2023-04-11T15:45:02.567Z,36.4
2023-04-11T16:00:02.867Z,37.9
2023-04-11T16:15:02.338Z,38.5
2023-04-11T16:30:03.026Z,39.0
2023-04-11T16:45:02.218Z,39.0
2023-04-11T17:00:02.688Z,39.4
2023-04-11T17:15:03.126Z,40.6
2023-04-11T17:30:02.609Z,43.0
2023-04-11T17:45:13.908Z,44.1
2023-04-11T18:00:02.592Z,45.2
2023-04-11T18:15:02.842Z,46.2
2023-04-11T18:30:02.296Z,48.2
2023-04-11T18:45:02.840Z,49.4
2023-04-11T19:00:04.464Z,52.3
2023-04-11T19:15:02.615Z,54.4
2023-04-11T19:30:03.020Z,62.0
2023-04-11T19:45:02.637Z,68.1
2023-04-11T20:00:02.963Z,70.5
2023-04-11T20:15:02.352Z,71.0
2023-04-11T20:30:02.788Z,73.3
2023-04-11T20:45:03.227Z,77.7
2023-04-11T21:00:02.673Z,80.3
2023-04-11T21:15:03.114Z,82.0
2023-04-11T21:30:02.649Z,82.5
2023-04-11T21:45:02.965Z,84.5
2023-04-11T22:00:02.678Z,86.6
2023-04-11T22:15:02.849Z,87.4
2023-04-11T22:30:02.355Z,87.9
2023-04-11T22:45:02.774Z,87.8
2023-04-11T23:00:03.206Z,87.8
2023-04-11T23:15:02.659Z,88.6
2023-04-11T23:30:03.098Z,88.7
2023-04-11T23:45:02.664Z,88.6
